sensor_id;sensor_type;location;lat;lon;timestamp;P1;durP1;ratioP1;P2;durP2;ratioP2
71513;SDS011;59335;46.652;21.272;2022-10-04T00:00:47;13.50;;;2.00;;
71513;SDS011;59335;46.652;21.272;2022-10-04T00:04:01;15.40;;;2.35;;
71513;SDS011;59335;46.652;21.272;2022-10-04T00:10:17;13.98;;;2.15;;
71513;SDS011;59335;46.652;21.272;2022-10-04T00:13:23;13.53;;;2.47;;
71513;SDS011;59335;46.652;21.272;2022-10-04T00:16:30;21.02;;;2.65;;
71513;SDS011;59335;46.652;21.272;2022-10-04T00:19:37;16.63;;;2.30;;
71513;SDS011;59335;46.652;21.272;2022-10-04T00:23:23;13.90;;;2.30;;
71513;SDS011;59335;46.652;21.272;2022-10-04T00:30:36;9.13;;;2.17;;
71513;SDS011;59335;46.652;21.272;2022-10-04T00:33:33;20.27;;;2.60;;
71513;SDS011;59335;46.652;21.272;2022-10-04T00:36:52;12.05;;;2.05;;
71513;SDS011;59335;46.652;21.272;2022-10-04T00:43:06;11.43;;;1.90;;
71513;SDS011;59335;46.652;21.272;2022-10-04T00:46:17;13.70;;;1.93;;
71513;SDS011;59335;46.652;21.272;2022-10-04T00:49:28;13.68;;;2.20;;
71513;SDS011;59335;46.652;21.272;2022-10-04T00:52:35;11.50;;;1.83;;
71513;SDS011;59335;46.652;21.272;2022-10-04T00:55:47;8.52;;;2.10;;
71513;SDS011;59335;46.652;21.272;2022-10-04T01:02:10;13.50;;;2.30;;
71513;SDS011;59335;46.652;21.272;2022-10-04T01:05:29;12.48;;;2.03;;
71513;SDS011;59335;46.652;21.272;2022-10-04T01:08:37;14.85;;;2.42;;
71513;SDS011;59335;46.652;21.272;2022-10-04T01:11:49;10.98;;;2.00;;
71513;SDS011;59335;46.652;21.272;2022-10-04T01:18:11;11.17;;;2.20;;
71513;SDS011;59335;46.652;21.272;2022-10-04T01:24:22;10.18;;;2.08;;
71513;SDS011;59335;46.652;21.272;2022-10-04T01:27:41;14.27;;;2.22;;
71513;SDS011;59335;46.652;21.272;2022-10-04T01:30:45;8.85;;;1.92;;
71513;SDS011;59335;46.652;21.272;2022-10-04T01:33:47;9.27;;;1.77;;
71513;SDS011;59335;46.652;21.272;2022-10-04T01:36:51;11.48;;;1.85;;
71513;SDS011;59335;46.652;21.272;2022-10-04T01:39:56;10.35;;;2.17;;
71513;SDS011;59335;46.652;21.272;2022-10-04T01:43:00;11.20;;;2.17;;
71513;SDS011;59335;46.652;21.272;2022-10-04T01:46:28;7.82;;;1.83;;
71513;SDS011;59335;46.652;21.272;2022-10-04T01:49:35;11.80;;;1.90;;
71513;SDS011;59335;46.652;21.272;2022-10-04T01:52:41;12.32;;;2.15;;
71513;SDS011;59335;46.652;21.272;2022-10-04T01:55:52;13.95;;;2.05;;
71513;SDS011;59335;46.652;21.272;2022-10-04T01:58:58;10.00;;;1.80;;
71513;SDS011;59335;46.652;21.272;2022-10-04T02:02:10;8.75;;;1.60;;
71513;SDS011;59335;46.652;21.272;2022-10-04T02:08:47;11.15;;;1.75;;
71513;SDS011;59335;46.652;21.272;2022-10-04T02:11:52;9.65;;;1.77;;
71513;SDS011;59335;46.652;21.272;2022-10-04T02:14:56;8.68;;;1.95;;
71513;SDS011;59335;46.652;21.272;2022-10-04T02:18:03;9.65;;;1.98;;
71513;SDS011;59335;46.652;21.272;2022-10-04T02:21:12;13.07;;;1.67;;
71513;SDS011;59335;46.652;21.272;2022-10-04T02:24:17;10.35;;;1.75;;
71513;SDS011;59335;46.652;21.272;2022-10-04T02:27:27;9.35;;;1.77;;
71513;SDS011;59335;46.652;21.272;2022-10-04T02:30:36;7.75;;;1.60;;
71513;SDS011;59335;46.652;21.272;2022-10-04T02:33:40;11.77;;;1.83;;
71513;SDS011;59335;46.652;21.272;2022-10-04T02:36:46;9.23;;;1.87;;
71513;SDS011;59335;46.652;21.272;2022-10-04T02:40:03;9.07;;;1.67;;
71513;SDS011;59335;46.652;21.272;2022-10-04T02:43:17;12.02;;;1.83;;
71513;SDS011;59335;46.652;21.272;2022-10-04T02:46:27;11.40;;;1.95;;
71513;SDS011;59335;46.652;21.272;2022-10-04T02:49:42;7.35;;;1.42;;
71513;SDS011;59335;46.652;21.272;2022-10-04T02:52:50;6.70;;;1.40;;
71513;SDS011;59335;46.652;21.272;2022-10-04T02:55:56;8.70;;;1.90;;
71513;SDS011;59335;46.652;21.272;2022-10-04T02:59:00;6.07;;;1.40;;
71513;SDS011;59335;46.652;21.272;2022-10-04T03:02:19;10.77;;;2.10;;
71513;SDS011;59335;46.652;21.272;2022-10-04T03:05:30;11.07;;;1.80;;
71513;SDS011;59335;46.652;21.272;2022-10-04T03:08:35;7.53;;;1.60;;
71513;SDS011;59335;46.652;21.272;2022-10-04T03:11:45;8.95;;;2.03;;
71513;SDS011;59335;46.652;21.272;2022-10-04T03:14:48;7.10;;;1.77;;
71513;SDS011;59335;46.652;21.272;2022-10-04T03:17:54;7.72;;;2.00;;
71513;SDS011;59335;46.652;21.272;2022-10-04T03:20:59;7.60;;;1.70;;
71513;SDS011;59335;46.652;21.272;2022-10-04T03:24:04;8.13;;;1.57;;
71513;SDS011;59335;46.652;21.272;2022-10-04T03:27:07;10.63;;;2.00;;
71513;SDS011;59335;46.652;21.272;2022-10-04T03:30:15;8.45;;;1.98;;
71513;SDS011;59335;46.652;21.272;2022-10-04T03:33:22;8.10;;;1.90;;
71513;SDS011;59335;46.652;21.272;2022-10-04T03:36:26;6.95;;;1.65;;
71513;SDS011;59335;46.652;21.272;2022-10-04T03:39:30;8.77;;;1.80;;
71513;SDS011;59335;46.652;21.272;2022-10-04T03:42:35;8.13;;;1.85;;
71513;SDS011;59335;46.652;21.272;2022-10-04T03:45:38;7.00;;;1.70;;
71513;SDS011;59335;46.652;21.272;2022-10-04T03:48:43;8.45;;;1.90;;
71513;SDS011;59335;46.652;21.272;2022-10-04T03:51:51;7.93;;;1.67;;
71513;SDS011;59335;46.652;21.272;2022-10-04T03:54:55;6.30;;;1.60;;
71513;SDS011;59335;46.652;21.272;2022-10-04T03:58:00;6.22;;;1.38;;
71513;SDS011;59335;46.652;21.272;2022-10-04T04:01:08;6.35;;;1.70;;
71513;SDS011;59335;46.652;21.272;2022-10-04T04:04:24;7.82;;;1.70;;
71513;SDS011;59335;46.652;21.272;2022-10-04T04:07:44;7.13;;;1.60;;
71513;SDS011;59335;46.652;21.272;2022-10-04T04:10:54;6.70;;;1.50;;
71513;SDS011;59335;46.652;21.272;2022-10-04T04:14:06;7.72;;;2.05;;
71513;SDS011;59335;46.652;21.272;2022-10-04T04:17:28;6.97;;;1.60;;
71513;SDS011;59335;46.652;21.272;2022-10-04T04:20:37;5.25;;;1.30;;
71513;SDS011;59335;46.652;21.272;2022-10-04T04:23:40;11.10;;;1.83;;
71513;SDS011;59335;46.652;21.272;2022-10-04T04:26:53;6.83;;;1.63;;
71513;SDS011;59335;46.652;21.272;2022-10-04T04:30:02;9.50;;;1.55;;
71513;SDS011;59335;46.652;21.272;2022-10-04T04:33:08;7.75;;;1.60;;
71513;SDS011;59335;46.652;21.272;2022-10-04T04:36:22;6.32;;;1.40;;
71513;SDS011;59335;46.652;21.272;2022-10-04T04:39:25;8.82;;;1.75;;
71513;SDS011;59335;46.652;21.272;2022-10-04T04:42:42;7.63;;;1.80;;
71513;SDS011;59335;46.652;21.272;2022-10-04T04:45:46;6.15;;;1.60;;
71513;SDS011;59335;46.652;21.272;2022-10-04T04:49:10;6.47;;;1.30;;
71513;SDS011;59335;46.652;21.272;2022-10-04T04:52:16;5.38;;;1.55;;
71513;SDS011;59335;46.652;21.272;2022-10-04T04:55:22;7.70;;;1.60;;
71513;SDS011;59335;46.652;21.272;2022-10-04T04:58:28;5.63;;;1.40;;
71513;SDS011;59335;46.652;21.272;2022-10-04T05:01:44;5.63;;;1.30;;
71513;SDS011;59335;46.652;21.272;2022-10-04T05:04:48;5.63;;;1.30;;
71513;SDS011;59335;46.652;21.272;2022-10-04T05:11:15;6.25;;;1.77;;
71513;SDS011;59335;46.652;21.272;2022-10-04T05:14:20;9.73;;;1.70;;
71513;SDS011;59335;46.652;21.272;2022-10-04T05:17:24;6.38;;;1.55;;
71513;SDS011;59335;46.652;21.272;2022-10-04T05:20:29;5.88;;;1.50;;
71513;SDS011;59335;46.652;21.272;2022-10-04T05:23:33;6.28;;;1.88;;
71513;SDS011;59335;46.652;21.272;2022-10-04T05:26:36;7.90;;;1.60;;
71513;SDS011;59335;46.652;21.272;2022-10-04T05:29:40;6.07;;;1.20;;
71513;SDS011;59335;46.652;21.272;2022-10-04T05:39:26;12.13;;;3.33;;
71513;SDS011;59335;46.652;21.272;2022-10-04T05:42:56;10.45;;;2.90;;
71513;SDS011;59335;46.652;21.272;2022-10-04T05:49:41;7.95;;;2.70;;
71513;SDS011;59335;46.652;21.272;2022-10-04T05:52:48;6.38;;;2.60;;
71513;SDS011;59335;46.652;21.272;2022-10-04T05:55:57;6.25;;;2.50;;
71513;SDS011;59335;46.652;21.272;2022-10-04T06:10:04;6.88;;;2.30;;
71513;SDS011;59335;46.652;21.272;2022-10-04T06:17:05;8.90;;;2.70;;
71513;SDS011;59335;46.652;21.272;2022-10-04T06:23:27;7.28;;;2.47;;
71513;SDS011;59335;46.652;21.272;2022-10-04T06:26:38;6.65;;;2.30;;
71513;SDS011;59335;46.652;21.272;2022-10-04T06:29:53;8.77;;;2.70;;
71513;SDS011;59335;46.652;21.272;2022-10-04T06:43:18;6.72;;;2.17;;
71513;SDS011;59335;46.652;21.272;2022-10-04T06:46:39;7.63;;;2.38;;
71513;SDS011;59335;46.652;21.272;2022-10-04T06:49:45;7.95;;;2.42;;
71513;SDS011;59335;46.652;21.272;2022-10-04T07:00:15;7.47;;;2.38;;
71513;SDS011;59335;46.652;21.272;2022-10-04T07:03:24;6.97;;;2.30;;
71513;SDS011;59335;46.652;21.272;2022-10-04T07:06:40;8.50;;;2.60;;
71513;SDS011;59335;46.652;21.272;2022-10-04T07:09:51;9.13;;;2.47;;
71513;SDS011;59335;46.652;21.272;2022-10-04T07:16:08;9.02;;;2.30;;
71513;SDS011;59335;46.652;21.272;2022-10-04T07:19:33;8.00;;;2.20;;
71513;SDS011;59335;46.652;21.272;2022-10-04T07:22:41;6.53;;;2.03;;
71513;SDS011;59335;46.652;21.272;2022-10-04T07:25:49;6.07;;;2.43;;
71513;SDS011;59335;46.652;21.272;2022-10-04T07:28:58;8.55;;;2.30;;
71513;SDS011;59335;46.652;21.272;2022-10-04T07:32:24;8.20;;;2.65;;
71513;SDS011;59335;46.652;21.272;2022-10-04T07:35:34;5.07;;;2.20;;
71513;SDS011;59335;46.652;21.272;2022-10-04T07:38:47;8.63;;;2.20;;
71513;SDS011;59335;46.652;21.272;2022-10-04T07:41:55;10.27;;;2.70;;
71513;SDS011;59335;46.652;21.272;2022-10-04T07:45:22;8.20;;;2.75;;
71513;SDS011;59335;46.652;21.272;2022-10-04T07:48:31;6.35;;;2.15;;
71513;SDS011;59335;46.652;21.272;2022-10-04T07:51:55;8.98;;;2.45;;
71513;SDS011;59335;46.652;21.272;2022-10-04T07:58:50;8.37;;;2.80;;
71513;SDS011;59335;46.652;21.272;2022-10-04T08:05:47;8.77;;;2.30;;
71513;SDS011;59335;46.652;21.272;2022-10-04T08:12:27;10.00;;;2.50;;
71513;SDS011;59335;46.652;21.272;2022-10-04T08:15:54;8.17;;;2.77;;
71513;SDS011;59335;46.652;21.272;2022-10-04T08:19:10;9.02;;;2.28;;
71513;SDS011;59335;46.652;21.272;2022-10-04T08:22:40;8.68;;;2.33;;
71513;SDS011;59335;46.652;21.272;2022-10-04T08:25:50;7.70;;;2.53;;
71513;SDS011;59335;46.652;21.272;2022-10-04T08:42:59;6.80;;;2.60;;
71513;SDS011;59335;46.652;21.272;2022-10-04T09:03:05;9.93;;;2.60;;
71513;SDS011;59335;46.652;21.272;2022-10-04T09:23:44;9.63;;;2.60;;
71513;SDS011;59335;46.652;21.272;2022-10-04T09:27:10;7.30;;;2.70;;
71513;SDS011;59335;46.652;21.272;2022-10-04T09:30:58;7.00;;;2.35;;
71513;SDS011;59335;46.652;21.272;2022-10-04T09:34:26;8.20;;;2.25;;
71513;SDS011;59335;46.652;21.272;2022-10-04T09:37:45;9.48;;;2.50;;
71513;SDS011;59335;46.652;21.272;2022-10-04T09:41:12;14.77;;;2.70;;
71513;SDS011;59335;46.652;21.272;2022-10-04T09:54:50;10.50;;;2.83;;
71513;SDS011;59335;46.652;21.272;2022-10-04T09:58:39;10.33;;;2.60;;
71513;SDS011;59335;46.652;21.272;2022-10-04T10:05:47;9.73;;;2.60;;
71513;SDS011;59335;46.652;21.272;2022-10-04T10:16:06;9.30;;;2.70;;
71513;SDS011;59335;46.652;21.272;2022-10-04T10:36:16;11.23;;;2.88;;
71513;SDS011;59335;46.652;21.272;2022-10-04T10:46:52;9.18;;;2.35;;
71513;SDS011;59335;46.652;21.272;2022-10-04T11:07:17;10.80;;;2.50;;
71513;SDS011;59335;46.652;21.272;2022-10-04T11:10:55;10.75;;;2.53;;
71513;SDS011;59335;46.652;21.272;2022-10-04T11:17:59;9.98;;;2.47;;
71513;SDS011;59335;46.652;21.272;2022-10-04T11:28:00;12.02;;;2.35;;
71513;SDS011;59335;46.652;21.272;2022-10-04T11:37:57;7.85;;;2.22;;
71513;SDS011;59335;46.652;21.272;2022-10-04T11:41:08;9.67;;;2.63;;
71513;SDS011;59335;46.652;21.272;2022-10-04T11:58:05;8.43;;;2.00;;
71513;SDS011;59335;46.652;21.272;2022-10-04T12:04:47;10.93;;;2.13;;
71513;SDS011;59335;46.652;21.272;2022-10-04T12:08:16;9.55;;;2.30;;
71513;SDS011;59335;46.652;21.272;2022-10-04T12:18:57;7.78;;;2.22;;
71513;SDS011;59335;46.652;21.272;2022-10-04T12:25:46;7.80;;;2.00;;
71513;SDS011;59335;46.652;21.272;2022-10-04T12:42:13;5.38;;;2.10;;
71513;SDS011;59335;46.652;21.272;2022-10-04T12:45:40;8.20;;;2.60;;
71513;SDS011;59335;46.652;21.272;2022-10-04T12:52:31;9.80;;;2.20;;
71513;SDS011;59335;46.652;21.272;2022-10-04T13:05:29;8.90;;;2.10;;
71513;SDS011;59335;46.652;21.272;2022-10-04T13:15:40;9.35;;;2.08;;
71513;SDS011;59335;46.652;21.272;2022-10-04T13:19:15;13.63;;;2.58;;
71513;SDS011;59335;46.652;21.272;2022-10-04T13:32:43;10.98;;;2.63;;
71513;SDS011;59335;46.652;21.272;2022-10-04T13:36:20;11.32;;;2.58;;
71513;SDS011;59335;46.652;21.272;2022-10-04T13:50:28;9.68;;;2.80;;
71513;SDS011;59335;46.652;21.272;2022-10-04T13:57:28;8.30;;;2.30;;
71513;SDS011;59335;46.652;21.272;2022-10-04T14:11:20;7.47;;;2.00;;
71513;SDS011;59335;46.652;21.272;2022-10-04T14:28:28;5.97;;;1.90;;
71513;SDS011;59335;46.652;21.272;2022-10-04T14:31:44;6.47;;;2.10;;
71513;SDS011;59335;46.652;21.272;2022-10-04T14:58:53;38.88;;;3.97;;
71513;SDS011;59335;46.652;21.272;2022-10-04T15:02:21;43.83;;;4.50;;
71513;SDS011;59335;46.652;21.272;2022-10-04T15:22:24;33.83;;;3.97;;
71513;SDS011;59335;46.652;21.272;2022-10-04T15:25:47;42.58;;;4.25;;
71513;SDS011;59335;46.652;21.272;2022-10-04T15:36:02;32.65;;;3.28;;
71513;SDS011;59335;46.652;21.272;2022-10-04T15:42:35;28.83;;;3.70;;
71513;SDS011;59335;46.652;21.272;2022-10-04T15:52:39;31.50;;;3.83;;
71513;SDS011;59335;46.652;21.272;2022-10-04T16:02:50;28.38;;;3.60;;
71513;SDS011;59335;46.652;21.272;2022-10-04T16:06:08;32.80;;;3.80;;
71513;SDS011;59335;46.652;21.272;2022-10-04T16:12:51;23.63;;;4.40;;
71513;SDS011;59335;46.652;21.272;2022-10-04T16:22:31;18.55;;;3.63;;
71513;SDS011;59335;46.652;21.272;2022-10-04T16:25:35;23.80;;;3.45;;
71513;SDS011;59335;46.652;21.272;2022-10-04T16:28:54;19.20;;;3.63;;
71513;SDS011;59335;46.652;21.272;2022-10-04T16:32:13;17.52;;;3.00;;
71513;SDS011;59335;46.652;21.272;2022-10-04T16:38:50;24.33;;;3.10;;
71513;SDS011;59335;46.652;21.272;2022-10-04T16:42:14;25.67;;;3.72;;
71513;SDS011;59335;46.652;21.272;2022-10-04T16:55:32;31.67;;;4.07;;
71513;SDS011;59335;46.652;21.272;2022-10-04T16:58:49;22.98;;;4.15;;
71513;SDS011;59335;46.652;21.272;2022-10-04T17:08:21;16.85;;;3.03;;
71513;SDS011;59335;46.652;21.272;2022-10-04T17:11:42;23.17;;;3.72;;
71513;SDS011;59335;46.652;21.272;2022-10-04T17:14:54;26.65;;;4.07;;
71513;SDS011;59335;46.652;21.272;2022-10-04T17:41:59;20.13;;;3.65;;
71513;SDS011;59335;46.652;21.272;2022-10-04T17:45:19;16.30;;;3.90;;
71513;SDS011;59335;46.652;21.272;2022-10-04T17:48:26;18.90;;;3.80;;
71513;SDS011;59335;46.652;21.272;2022-10-04T17:51:52;15.23;;;3.90;;
71513;SDS011;59335;46.652;21.272;2022-10-04T17:55:19;16.25;;;3.78;;
71513;SDS011;59335;46.652;21.272;2022-10-04T17:58:43;12.25;;;3.60;;
71513;SDS011;59335;46.652;21.272;2022-10-04T18:01:51;12.57;;;3.55;;
71513;SDS011;59335;46.652;21.272;2022-10-04T18:05:03;15.93;;;4.05;;
71513;SDS011;59335;46.652;21.272;2022-10-04T18:08:37;16.00;;;3.97;;
71513;SDS011;59335;46.652;21.272;2022-10-04T18:11:43;15.98;;;3.90;;
71513;SDS011;59335;46.652;21.272;2022-10-04T18:14:56;15.40;;;3.95;;
71513;SDS011;59335;46.652;21.272;2022-10-04T18:18:18;14.50;;;3.63;;
71513;SDS011;59335;46.652;21.272;2022-10-04T18:21:25;16.27;;;3.90;;
71513;SDS011;59335;46.652;21.272;2022-10-04T18:24:29;18.17;;;4.33;;
71513;SDS011;59335;46.652;21.272;2022-10-04T18:27:32;14.60;;;3.80;;
71513;SDS011;59335;46.652;21.272;2022-10-04T18:30:55;12.93;;;3.80;;
71513;SDS011;59335;46.652;21.272;2022-10-04T18:37:20;17.95;;;5.78;;
71513;SDS011;59335;46.652;21.272;2022-10-04T18:40:44;16.23;;;5.27;;
71513;SDS011;59335;46.652;21.272;2022-10-04T18:47:11;17.02;;;5.32;;
71513;SDS011;59335;46.652;21.272;2022-10-04T18:50:40;19.65;;;4.85;;
71513;SDS011;59335;46.652;21.272;2022-10-04T18:53:50;12.32;;;4.32;;
71513;SDS011;59335;46.652;21.272;2022-10-04T19:00:31;14.45;;;4.40;;
71513;SDS011;59335;46.652;21.272;2022-10-04T19:04:01;14.35;;;4.00;;
71513;SDS011;59335;46.652;21.272;2022-10-04T19:07:13;13.05;;;4.18;;
71513;SDS011;59335;46.652;21.272;2022-10-04T19:10:23;15.63;;;4.93;;
71513;SDS011;59335;46.652;21.272;2022-10-04T19:13:33;16.10;;;4.57;;
71513;SDS011;59335;46.652;21.272;2022-10-04T19:16:47;14.82;;;4.07;;
71513;SDS011;59335;46.652;21.272;2022-10-04T19:20:15;15.60;;;4.43;;
71513;SDS011;59335;46.652;21.272;2022-10-04T19:23:31;13.70;;;4.75;;
71513;SDS011;59335;46.652;21.272;2022-10-04T19:26:58;18.00;;;4.30;;
71513;SDS011;59335;46.652;21.272;2022-10-04T19:30:38;12.00;;;4.20;;
71513;SDS011;59335;46.652;21.272;2022-10-04T19:33:51;13.43;;;4.32;;
71513;SDS011;59335;46.652;21.272;2022-10-04T19:37:00;10.80;;;4.53;;
71513;SDS011;59335;46.652;21.272;2022-10-04T19:43:27;11.05;;;3.88;;
71513;SDS011;59335;46.652;21.272;2022-10-04T19:46:55;13.77;;;4.17;;
71513;SDS011;59335;46.652;21.272;2022-10-04T19:50:23;13.23;;;4.40;;
71513;SDS011;59335;46.652;21.272;2022-10-04T19:53:42;10.70;;;3.80;;
71513;SDS011;59335;46.652;21.272;2022-10-04T19:56:47;12.27;;;3.88;;
71513;SDS011;59335;46.652;21.272;2022-10-04T19:59:52;13.68;;;3.97;;
71513;SDS011;59335;46.652;21.272;2022-10-04T20:02:55;9.90;;;4.30;;
71513;SDS011;59335;46.652;21.272;2022-10-04T20:05:58;12.48;;;4.45;;
71513;SDS011;59335;46.652;21.272;2022-10-04T20:16:11;14.75;;;4.13;;
71513;SDS011;59335;46.652;21.272;2022-10-04T20:22:29;11.88;;;4.50;;
71513;SDS011;59335;46.652;21.272;2022-10-04T20:28:56;9.50;;;4.40;;
71513;SDS011;59335;46.652;21.272;2022-10-04T20:31:59;11.70;;;4.18;;
71513;SDS011;59335;46.652;21.272;2022-10-04T20:35:04;10.63;;;4.60;;
71513;SDS011;59335;46.652;21.272;2022-10-04T20:38:14;13.88;;;4.15;;
71513;SDS011;59335;46.652;21.272;2022-10-04T20:44:57;11.52;;;4.10;;
71513;SDS011;59335;46.652;21.272;2022-10-04T20:48:02;11.50;;;3.70;;
71513;SDS011;59335;46.652;21.272;2022-10-04T20:51:28;9.53;;;3.83;;
71513;SDS011;59335;46.652;21.272;2022-10-04T20:54:34;10.43;;;3.80;;
71513;SDS011;59335;46.652;21.272;2022-10-04T20:57:37;8.95;;;3.72;;
71513;SDS011;59335;46.652;21.272;2022-10-04T21:00:49;12.88;;;4.40;;
71513;SDS011;59335;46.652;21.272;2022-10-04T21:07:34;9.83;;;4.07;;
71513;SDS011;59335;46.652;21.272;2022-10-04T21:10:36;10.68;;;3.60;;
71513;SDS011;59335;46.652;21.272;2022-10-04T21:13:53;10.88;;;4.00;;
71513;SDS011;59335;46.652;21.272;2022-10-04T21:16:58;10.00;;;3.65;;
71513;SDS011;59335;46.652;21.272;2022-10-04T21:23:51;11.70;;;3.97;;
71513;SDS011;59335;46.652;21.272;2022-10-04T21:26:54;10.15;;;3.60;;
71513;SDS011;59335;46.652;21.272;2022-10-04T21:29:59;10.57;;;3.45;;
71513;SDS011;59335;46.652;21.272;2022-10-04T21:33:07;10.10;;;4.03;;
71513;SDS011;59335;46.652;21.272;2022-10-04T21:36:09;11.23;;;3.90;;
71513;SDS011;59335;46.652;21.272;2022-10-04T21:39:12;9.23;;;3.67;;
71513;SDS011;59335;46.652;21.272;2022-10-04T21:42:14;11.57;;;4.88;;
71513;SDS011;59335;46.652;21.272;2022-10-04T21:45:17;8.30;;;4.00;;
71513;SDS011;59335;46.652;21.272;2022-10-04T21:48:20;9.43;;;3.80;;
71513;SDS011;59335;46.652;21.272;2022-10-04T21:51:24;10.15;;;3.78;;
71513;SDS011;59335;46.652;21.272;2022-10-04T21:54:26;9.63;;;3.97;;
71513;SDS011;59335;46.652;21.272;2022-10-04T21:57:29;9.48;;;3.53;;
71513;SDS011;59335;46.652;21.272;2022-10-04T22:00:36;9.20;;;3.78;;
71513;SDS011;59335;46.652;21.272;2022-10-04T22:03:39;7.55;;;3.60;;
71513;SDS011;59335;46.652;21.272;2022-10-04T22:06:42;8.30;;;3.72;;
71513;SDS011;59335;46.652;21.272;2022-10-04T22:09:45;9.67;;;3.97;;
71513;SDS011;59335;46.652;21.272;2022-10-04T22:12:47;8.98;;;3.63;;
71513;SDS011;59335;46.652;21.272;2022-10-04T22:15:51;9.88;;;4.03;;
71513;SDS011;59335;46.652;21.272;2022-10-04T22:18:54;11.98;;;3.85;;
71513;SDS011;59335;46.652;21.272;2022-10-04T22:21:56;7.38;;;3.58;;
71513;SDS011;59335;46.652;21.272;2022-10-04T22:24:59;9.60;;;3.93;;
71513;SDS011;59335;46.652;21.272;2022-10-04T22:28:01;11.77;;;3.92;;
71513;SDS011;59335;46.652;21.272;2022-10-04T22:31:20;8.00;;;3.40;;
71513;SDS011;59335;46.652;21.272;2022-10-04T22:34:31;8.10;;;3.45;;
71513;SDS011;59335;46.652;21.272;2022-10-04T22:37:34;10.77;;;3.83;;
71513;SDS011;59335;46.652;21.272;2022-10-04T22:40:37;8.43;;;4.10;;
71513;SDS011;59335;46.652;21.272;2022-10-04T22:43:40;7.88;;;3.40;;
71513;SDS011;59335;46.652;21.272;2022-10-04T22:46:44;8.63;;;3.70;;
71513;SDS011;59335;46.652;21.272;2022-10-04T22:49:50;8.63;;;4.03;;
71513;SDS011;59335;46.652;21.272;2022-10-04T22:52:54;8.07;;;3.67;;
71513;SDS011;59335;46.652;21.272;2022-10-04T22:55:56;8.87;;;3.83;;
71513;SDS011;59335;46.652;21.272;2022-10-04T22:58:59;7.82;;;3.47;;
71513;SDS011;59335;46.652;21.272;2022-10-04T23:02:04;9.07;;;3.88;;
71513;SDS011;59335;46.652;21.272;2022-10-04T23:05:16;10.13;;;4.07;;
71513;SDS011;59335;46.652;21.272;2022-10-04T23:08:20;7.80;;;3.47;;
71513;SDS011;59335;46.652;21.272;2022-10-04T23:11:23;7.57;;;3.10;;
71513;SDS011;59335;46.652;21.272;2022-10-04T23:14:26;7.95;;;3.70;;
71513;SDS011;59335;46.652;21.272;2022-10-04T23:17:30;9.60;;;3.70;;
71513;SDS011;59335;46.652;21.272;2022-10-04T23:20:36;9.25;;;3.72;;
71513;SDS011;59335;46.652;21.272;2022-10-04T23:23:39;7.40;;;3.50;;
71513;SDS011;59335;46.652;21.272;2022-10-04T23:26:42;6.80;;;3.30;;
71513;SDS011;59335;46.652;21.272;2022-10-04T23:29:56;7.00;;;3.30;;
71513;SDS011;59335;46.652;21.272;2022-10-04T23:33:05;9.93;;;3.47;;
71513;SDS011;59335;46.652;21.272;2022-10-04T23:36:17;8.32;;;3.92;;
71513;SDS011;59335;46.652;21.272;2022-10-04T23:39:24;10.15;;;3.50;;
71513;SDS011;59335;46.652;21.272;2022-10-04T23:42:30;7.83;;;3.33;;
71513;SDS011;59335;46.652;21.272;2022-10-04T23:45:34;7.15;;;3.40;;
71513;SDS011;59335;46.652;21.272;2022-10-04T23:48:43;9.07;;;3.47;;
71513;SDS011;59335;46.652;21.272;2022-10-04T23:51:46;7.85;;;3.50;;
71513;SDS011;59335;46.652;21.272;2022-10-04T23:54:51;8.07;;;3.53;;
71513;SDS011;59335;46.652;21.272;2022-10-04T23:57:57;8.33;;;3.37;;
